createdAt,value
2023-03-22T00:02:14.699Z,8.54
2023-03-22T00:05:10.799Z,8.52
2023-03-22T00:08:00.969Z,8.47
2023-03-22T00:10:29.069Z,8.43
2023-03-22T00:12:55.774Z,8.41
2023-03-22T00:15:22.597Z,8.39
2023-03-22T00:17:52.331Z,8.34
2023-03-22T00:20:20.852Z,8.32
2023-03-22T00:22:47.363Z,8.30
2023-03-22T00:25:13.826Z,8.28
2023-03-22T00:27:40.397Z,8.25
2023-03-22T00:30:08.051Z,8.24
2023-03-22T00:32:36.016Z,8.25
2023-03-22T00:35:03.937Z,8.26
2023-03-22T00:37:34.291Z,8.25
2023-03-22T00:40:01.281Z,8.27
2023-03-22T00:42:28.457Z,8.26
2023-03-22T00:44:54.877Z,8.24
2023-03-22T00:47:21.377Z,8.25
2023-03-22T00:49:49.351Z,8.23
2023-03-22T00:52:15.810Z,8.20
2023-03-22T00:54:42.289Z,8.17
2023-03-22T00:57:08.728Z,8.14
2023-03-22T00:59:38.587Z,8.10
2023-03-22T01:02:05.811Z,8.07
2023-03-22T01:04:35.475Z,8.06
2023-03-22T01:07:05.618Z,8.05
2023-03-22T01:09:33.762Z,8.07
2023-03-22T01:12:01.808Z,8.08
2023-03-22T01:14:28.646Z,8.11
2023-03-22T01:16:57.279Z,8.10
2023-03-22T01:19:24.605Z,8.08
2023-03-22T01:21:51.029Z,8.08
2023-03-22T01:24:17.408Z,8.09
2023-03-22T01:26:43.781Z,8.10
2023-03-22T01:29:10.399Z,8.09
2023-03-22T01:31:36.990Z,8.12
2023-03-22T01:34:03.900Z,8.14
2023-03-22T01:36:30.563Z,8.15
2023-03-22T01:38:57.040Z,8.12
2023-03-22T01:41:23.562Z,8.13
2023-03-22T01:44:09.282Z,8.13
2023-03-22T01:46:36.557Z,8.10
2023-03-22T01:49:05.035Z,8.11
2023-03-22T01:51:32.043Z,8.11
2023-03-22T01:54:04.035Z,8.13
2023-03-22T01:56:34.514Z,8.14
2023-03-22T01:59:01.616Z,8.13
2023-03-22T02:01:30.226Z,8.13
2023-03-22T02:04:08.192Z,8.11
2023-03-22T02:06:38.293Z,8.09
2023-03-22T02:09:11.089Z,8.11
2023-03-22T02:11:42.810Z,8.11
2023-03-22T02:14:12.259Z,8.11
2023-03-22T02:16:50.826Z,8.10
2023-03-22T02:19:29.255Z,8.08
2023-03-22T02:22:01.490Z,8.09
2023-03-22T02:24:45.750Z,8.07
2023-03-22T02:27:40.394Z,8.04
2023-03-22T02:30:31.538Z,8.07
2023-03-22T02:33:16.402Z,8.06
2023-03-22T02:36:16.739Z,8.06
2023-03-22T02:39:01.309Z,8.06
2023-03-22T02:41:40.295Z,8.06
2023-03-22T02:44:15.839Z,8.08
2023-03-22T02:47:05.052Z,8.09
2023-03-22T02:49:37.720Z,8.10
2023-03-22T02:52:07.205Z,8.11
2023-03-22T02:54:44.582Z,8.12
2023-03-22T02:57:28.390Z,8.13
2023-03-22T02:59:56.903Z,8.15
2023-03-22T03:02:26.685Z,8.18
2023-03-22T03:04:54.122Z,8.20
2023-03-22T03:07:25.554Z,8.22
2023-03-22T03:09:52.656Z,8.26
2023-03-22T03:12:23.220Z,8.30
2023-03-22T03:14:49.659Z,8.31
2023-03-22T03:17:34.089Z,8.34
2023-03-22T03:20:31.201Z,8.33
2023-03-22T03:23:35.222Z,8.34
2023-03-22T03:26:23.029Z,8.33
2023-03-22T03:28:52.502Z,8.34
2023-03-22T03:31:31.505Z,8.34
2023-03-22T03:34:17.058Z,8.36
2023-03-22T03:36:50.993Z,8.34
2023-03-22T03:39:19.994Z,8.34
2023-03-22T03:41:50.228Z,8.35
2023-03-22T03:44:17.814Z,8.35
2023-03-22T03:46:45.831Z,8.38
2023-03-22T03:49:14.107Z,8.40
2023-03-22T03:51:49.825Z,8.39
2023-03-22T03:54:16.366Z,8.47
2023-03-22T03:56:42.834Z,8.48
2023-03-22T03:59:09.301Z,8.52
2023-03-22T04:01:36.177Z,8.56
2023-03-22T04:04:02.639Z,8.57
2023-03-22T04:06:29.065Z,8.57
2023-03-22T04:08:56.543Z,8.56
2023-03-22T04:11:23.039Z,8.56
2023-03-22T04:13:49.456Z,8.54
2023-03-22T04:16:16.068Z,8.53
2023-03-22T04:18:42.613Z,8.55
2023-03-22T04:21:09.097Z,8.57
2023-03-22T04:23:35.608Z,8.58
2023-03-22T04:26:02.269Z,8.61
2023-03-22T04:28:28.840Z,8.61
2023-03-22T04:30:57.800Z,8.62
2023-03-22T04:33:24.281Z,8.64
2023-03-22T04:35:56.657Z,8.67
2023-03-22T04:38:25.208Z,8.67
2023-03-22T04:40:51.756Z,8.67
2023-03-22T04:43:18.945Z,8.67
2023-03-22T04:45:46.177Z,8.67
2023-03-22T04:48:12.678Z,8.65
2023-03-22T04:50:40.371Z,8.66
2023-03-22T04:53:08.102Z,8.67
2023-03-22T04:55:34.504Z,8.65
2023-03-22T04:58:01.014Z,8.65
2023-03-22T05:00:30.045Z,8.64
2023-03-22T05:02:57.296Z,8.65
2023-03-22T05:05:24.011Z,8.65
2023-03-22T05:07:50.394Z,8.65
2023-03-22T05:10:16.871Z,8.63
2023-03-22T05:12:43.241Z,8.62
2023-03-22T05:15:09.870Z,8.62
2023-03-22T05:17:36.260Z,8.62
2023-03-22T05:20:09.259Z,8.59
2023-03-22T05:22:40.455Z,8.59
2023-03-22T05:25:10.248Z,8.57
2023-03-22T05:27:38.996Z,8.54
2023-03-22T05:30:06.543Z,8.53
2023-03-22T05:32:33.013Z,8.49
2023-03-22T05:35:04.697Z,8.49
2023-03-22T05:37:31.619Z,8.48
2023-03-22T05:39:58.167Z,8.47
2023-03-22T05:42:24.591Z,8.48
2023-03-22T05:44:51.312Z,8.44
2023-03-22T05:47:17.729Z,8.44
2023-03-22T05:49:44.192Z,8.43
2023-03-22T05:52:10.969Z,8.45
2023-03-22T05:54:37.336Z,8.47
2023-03-22T05:57:03.809Z,8.45
2023-03-22T05:59:30.291Z,8.43
2023-03-22T06:01:56.694Z,8.43
2023-03-22T06:04:23.281Z,8.44
2023-03-22T06:06:50.393Z,8.44
2023-03-22T06:09:18.076Z,8.48
2023-03-22T06:11:44.788Z,8.54
2023-03-22T06:14:11.512Z,8.57
2023-03-22T06:16:38.056Z,8.61
2023-03-22T06:19:04.612Z,8.63
2023-03-22T06:21:31.135Z,8.65
2023-03-22T06:23:57.689Z,8.66
2023-03-22T06:26:24.187Z,8.66
2023-03-22T06:28:50.974Z,8.70
2023-03-22T06:31:17.522Z,8.75
2023-03-22T06:33:45.415Z,8.85
2023-03-22T06:36:11.894Z,9.00
2023-03-22T06:38:38.388Z,9.19
2023-03-22T06:41:05.279Z,9.37
2023-03-22T06:43:31.845Z,9.47
2023-03-22T06:45:58.396Z,9.49
2023-03-22T06:48:25.030Z,9.45
2023-03-22T06:50:51.608Z,9.44
2023-03-22T06:53:18.209Z,9.44
2023-03-22T06:55:44.622Z,9.43
2023-03-22T06:58:11.259Z,9.44
2023-03-22T07:00:39.018Z,9.53
2023-03-22T07:03:05.792Z,9.60
2023-03-22T07:05:32.379Z,9.58
2023-03-22T07:07:58.812Z,9.58
2023-03-22T07:10:25.488Z,9.58
2023-03-22T07:12:51.973Z,9.58
2023-03-22T07:15:20.021Z,9.54
2023-03-22T07:17:46.386Z,9.52
2023-03-22T07:20:12.971Z,9.52
2023-03-22T07:22:39.521Z,9.50
2023-03-22T07:25:06.364Z,9.49
2023-03-22T07:27:32.805Z,9.49
2023-03-22T07:29:59.278Z,9.53
2023-03-22T07:32:25.977Z,9.61
2023-03-22T07:34:52.486Z,9.70
2023-03-22T07:37:18.932Z,9.78
2023-03-22T07:39:45.460Z,9.84
2023-03-22T07:42:12.094Z,9.88
2023-03-22T07:44:38.548Z,9.90
2023-03-22T07:47:05.359Z,9.98
2023-03-22T07:49:32.409Z,9.99
2023-03-22T07:51:58.939Z,9.97
2023-03-22T07:54:33.326Z,9.96
2023-03-22T07:57:01.559Z,9.95
2023-03-22T07:59:28.389Z,9.96
2023-03-22T08:01:57.366Z,10.05
2023-03-22T08:04:23.852Z,10.20
2023-03-22T08:06:51.285Z,10.28
2023-03-22T08:09:18.331Z,10.37
2023-03-22T08:11:45.821Z,10.42
2023-03-22T08:14:12.257Z,10.54
2023-03-22T08:16:38.866Z,10.55
2023-03-22T08:19:06.016Z,10.55
2023-03-22T08:21:32.606Z,10.55
2023-03-22T08:23:59.135Z,10.50
2023-03-22T08:26:26.176Z,10.49
2023-03-22T08:28:52.766Z,10.47
2023-03-22T08:31:20.121Z,10.44
2023-03-22T08:33:47.074Z,10.43
2023-03-22T08:36:16.648Z,10.49
2023-03-22T08:38:44.817Z,10.57
2023-03-22T08:41:12.756Z,10.64
2023-03-22T08:43:39.347Z,10.65
2023-03-22T08:46:06.219Z,10.72
2023-03-22T08:48:32.808Z,10.75
2023-03-22T08:51:01.076Z,10.76
2023-03-22T08:53:28.009Z,10.91
2023-03-22T08:55:57.946Z,11.02
2023-03-22T08:58:24.865Z,11.06
2023-03-22T09:00:51.596Z,10.92
2023-03-22T09:03:18.128Z,10.83
2023-03-22T09:05:44.586Z,10.70
2023-03-22T09:08:18.661Z,10.62
2023-03-22T09:10:52.602Z,10.62
2023-03-22T09:13:20.016Z,10.66
2023-03-22T09:15:47.125Z,10.63
2023-03-22T09:18:16.521Z,10.64
2023-03-22T09:20:44.612Z,10.66
2023-03-22T09:23:11.846Z,10.68
2023-03-22T09:25:38.746Z,10.69
2023-03-22T09:28:11.094Z,10.70
2023-03-22T09:30:38.371Z,10.74
2023-03-22T09:33:12.030Z,10.73
2023-03-22T09:35:43.182Z,10.67
2023-03-22T09:38:10.534Z,10.58
2023-03-22T09:40:43.522Z,10.53
2023-03-22T09:43:13.606Z,10.50
2023-03-22T09:45:48.281Z,10.46
2023-03-22T09:48:21.655Z,10.32
2023-03-22T09:50:51.490Z,10.22
2023-03-22T09:53:18.459Z,10.18
2023-03-22T09:56:07.124Z,10.14
2023-03-22T09:58:39.598Z,10.11
2023-03-22T10:01:35.673Z,10.07
2023-03-22T10:04:26.142Z,10.03
2023-03-22T10:07:16.340Z,10.01
2023-03-22T10:10:12.603Z,9.99
2023-03-22T10:13:07.751Z,10.00
2023-03-22T10:15:41.983Z,10.04
2023-03-22T10:18:16.362Z,10.06
2023-03-22T10:20:57.287Z,10.04
2023-03-22T10:23:35.738Z,10.05
2023-03-22T10:26:04.465Z,10.06
2023-03-22T10:28:39.154Z,10.07
2023-03-22T10:31:06.978Z,10.05
2023-03-22T10:33:50.532Z,10.08
2023-03-22T10:36:20.862Z,10.10
2023-03-22T10:38:54.544Z,10.11
2023-03-22T10:41:25.582Z,10.15
2023-03-22T10:44:00.512Z,10.12
2023-03-22T10:46:34.116Z,10.07
2023-03-22T10:49:02.412Z,10.05
2023-03-22T10:51:47.790Z,10.04
2023-03-22T10:54:17.313Z,10.02
2023-03-22T10:56:45.134Z,10.06
2023-03-22T10:59:51.388Z,10.05
2023-03-22T11:02:29.664Z,10.10
2023-03-22T11:05:03.838Z,10.17
2023-03-22T11:07:36.887Z,10.21
2023-03-22T11:10:09.920Z,10.26
2023-03-22T11:12:45.636Z,10.29
2023-03-22T11:15:30.777Z,10.39
2023-03-22T11:18:07.005Z,10.47
2023-03-22T11:20:35.719Z,10.49
2023-03-22T11:23:07.223Z,10.44
2023-03-22T11:25:39.062Z,10.38
2023-03-22T11:28:23.843Z,10.40
2023-03-22T11:31:07.734Z,10.46
2023-03-22T11:33:37.536Z,10.45
2023-03-22T11:36:18.140Z,10.45
2023-03-22T11:38:47.428Z,10.44
2023-03-22T11:41:23.884Z,10.49
2023-03-22T11:44:03.759Z,10.50
2023-03-22T11:46:32.213Z,10.52
2023-03-22T11:49:05.198Z,10.51
2023-03-22T11:51:37.176Z,10.50
2023-03-22T11:54:11.177Z,10.50
2023-03-22T11:56:43.548Z,10.48
2023-03-22T11:59:40.582Z,10.45
2023-03-22T12:02:23.933Z,10.42
2023-03-22T12:05:00.770Z,10.41
2023-03-22T12:07:32.572Z,10.42
2023-03-22T12:10:21.868Z,10.40
2023-03-22T12:13:00.870Z,10.41
2023-03-22T12:15:41.123Z,10.42
2023-03-22T12:18:23.206Z,10.43
2023-03-22T12:20:56.897Z,10.46
2023-03-22T12:23:30.447Z,10.49
2023-03-22T12:26:09.018Z,10.52
2023-03-22T12:28:56.751Z,10.52
2023-03-22T12:31:31.946Z,10.52
2023-03-22T12:34:03.987Z,10.52
2023-03-22T12:36:41.566Z,10.52
2023-03-22T12:39:30.338Z,10.54
2023-03-22T12:42:03.171Z,10.55
2023-03-22T12:44:38.282Z,10.55
2023-03-22T12:47:19.079Z,10.58
2023-03-22T12:50:06.265Z,10.56
2023-03-22T12:52:44.777Z,10.58
2023-03-22T12:55:23.454Z,10.58
2023-03-22T12:57:54.941Z,10.61
2023-03-22T13:00:48.568Z,10.67
2023-03-22T13:03:21.890Z,10.69
2023-03-22T13:05:50.801Z,10.67
2023-03-22T13:08:22.388Z,10.72
2023-03-22T13:11:01.726Z,10.73
2023-03-22T13:13:28.218Z,10.71
2023-03-22T13:16:09.021Z,10.70
2023-03-22T13:18:35.548Z,10.67
2023-03-22T13:21:12.557Z,10.64
2023-03-22T13:24:10.127Z,10.64
2023-03-22T13:26:48.218Z,10.62
2023-03-22T13:29:22.052Z,10.66
2023-03-22T13:31:51.507Z,10.65
2023-03-22T13:34:31.522Z,10.69
2023-03-22T13:36:59.431Z,10.70
2023-03-22T13:39:34.735Z,10.72
2023-03-22T13:42:38.036Z,10.75
2023-03-22T13:45:08.996Z,10.76
2023-03-22T13:47:45.448Z,10.75
2023-03-22T13:50:23.570Z,10.74
2023-03-22T13:52:59.931Z,10.73
2023-03-22T13:56:03.912Z,10.67
2023-03-22T13:58:36.571Z,10.69
2023-03-22T14:01:08.141Z,10.69
2023-03-22T14:03:42.922Z,10.69
2023-03-22T14:06:29.023Z,10.72
2023-03-22T14:09:06.140Z,10.70
2023-03-22T14:12:00.166Z,10.72
2023-03-22T14:14:32.834Z,10.78
2023-03-22T14:17:21.119Z,10.78
2023-03-22T14:19:49.688Z,10.79
